createdAt,value
2023-02-06T00:01:20.437Z,99617.41
2023-02-06T00:03:48.214Z,99630.56
2023-02-06T00:06:16.168Z,99617.97
2023-02-06T00:08:43.921Z,99609.97
2023-02-06T00:11:16.640Z,99614.13
2023-02-06T00:13:45.569Z,99615.03
2023-02-06T00:16:18.342Z,99616.88
2023-02-06T00:18:46.398Z,99618.75
2023-02-06T00:21:14.276Z,99615.84
2023-02-06T00:23:42.116Z,99613.97
2023-02-06T00:26:09.863Z,99612.00
2023-02-06T00:28:38.107Z,99611.13
2023-02-06T00:31:08.026Z,99613.03
2023-02-06T00:33:35.839Z,99616.72
2023-02-06T00:36:04.445Z,99620.97
2023-02-06T00:38:32.163Z,99620.03
2023-02-06T00:40:59.894Z,99620.88
2023-02-06T00:43:27.393Z,99618.31
2023-02-06T00:45:57.391Z,99623.44
2023-02-06T00:48:27.080Z,99623.53
2023-02-06T00:50:55.078Z,99624.47
2023-02-06T00:53:22.723Z,99623.78
2023-02-06T00:55:50.388Z,99618.59
2023-02-06T00:58:17.984Z,99622.28
2023-02-06T01:00:46.109Z,99617.22
2023-02-06T01:03:13.715Z,99627.13
2023-02-06T01:05:43.145Z,99631.47
2023-02-06T01:08:12.082Z,99626.13
2023-02-06T01:10:44.299Z,99632.53
2023-02-06T01:13:12.588Z,99633.88
2023-02-06T01:15:41.922Z,99635.81
2023-02-06T01:18:09.686Z,99637.78
2023-02-06T01:20:37.384Z,99629.09
2023-02-06T01:23:04.944Z,99626.78
2023-02-06T01:25:32.632Z,99631.22
2023-02-06T01:28:00.234Z,99628.44
2023-02-06T01:30:27.904Z,99635.41
2023-02-06T01:32:57.292Z,99634.38
2023-02-06T01:35:25.135Z,99637.78
2023-02-06T01:37:52.637Z,99637.72
2023-02-06T01:40:20.157Z,99630.53
2023-02-06T01:42:47.675Z,99638.47
2023-02-06T01:45:26.811Z,99633.28
2023-02-06T01:48:04.159Z,99625.44
2023-02-06T01:50:35.912Z,99625.78
2023-02-06T01:53:06.204Z,99624.22
2023-02-06T01:55:37.249Z,99629.50
2023-02-06T01:58:05.740Z,99623.38
2023-02-06T02:00:33.584Z,99621.06
2023-02-06T02:03:01.935Z,99622.19
2023-02-06T02:05:33.265Z,99614.84
2023-02-06T02:08:16.376Z,99612.88
2023-02-06T02:10:44.606Z,99616.13
2023-02-06T02:13:12.330Z,99622.03
2023-02-06T02:16:25.370Z,99616.22
2023-02-06T02:19:12.595Z,99611.25
2023-02-06T02:21:54.930Z,99611.09
2023-02-06T02:25:02.436Z,99610.34
2023-02-06T02:28:08.363Z,99619.97
2023-02-06T02:31:27.428Z,99623.97
2023-02-06T02:34:44.018Z,99618.63
2023-02-06T02:37:47.271Z,99608.63
2023-02-06T02:40:21.089Z,99610.16
2023-02-06T02:43:10.614Z,99613.13
2023-02-06T02:45:53.749Z,99608.69
2023-02-06T02:48:28.492Z,99605.03
2023-02-06T02:50:57.172Z,99605.88
2023-02-06T02:53:25.451Z,99616.63
2023-02-06T02:55:53.014Z,99610.91
2023-02-06T02:58:26.668Z,99611.09
2023-02-06T03:01:01.570Z,99603.94
2023-02-06T03:03:31.387Z,99607.34
2023-02-06T03:06:39.875Z,99599.34
2023-02-06T03:09:46.970Z,99593.84
2023-02-06T03:12:34.112Z,99590.19
2023-02-06T03:15:24.491Z,99592.50
2023-02-06T03:18:12.123Z,99591.75
2023-02-06T03:20:45.250Z,99588.22
2023-02-06T03:23:27.416Z,99590.84
2023-02-06T03:26:00.549Z,99592.31
2023-02-06T03:28:37.650Z,99597.69
2023-02-06T03:31:13.214Z,99601.56
2023-02-06T03:33:51.590Z,99597.47
2023-02-06T03:36:20.065Z,99596.59
2023-02-06T03:38:51.055Z,99607.28
2023-02-06T03:41:25.799Z,99603.16
2023-02-06T03:43:54.567Z,99600.94
2023-02-06T03:46:26.117Z,99594.91
2023-02-06T03:48:59.717Z,99603.75
2023-02-06T03:51:49.865Z,99607.72
2023-02-06T03:54:21.518Z,99616.84
2023-02-06T03:56:59.715Z,99609.22
2023-02-06T03:59:27.627Z,99610.19
2023-02-06T04:02:02.536Z,99612.91
2023-02-06T04:04:37.337Z,99606.91
2023-02-06T04:07:23.631Z,99615.72
2023-02-06T04:09:51.839Z,99618.88
2023-02-06T04:12:20.163Z,99610.69
2023-02-06T04:14:47.774Z,99614.09
2023-02-06T04:17:23.754Z,99615.56
2023-02-06T04:19:58.997Z,99616.25
2023-02-06T04:22:26.482Z,99604.81
2023-02-06T04:24:53.973Z,99602.25
2023-02-06T04:27:21.550Z,99600.72
2023-02-06T04:29:49.109Z,99608.50
2023-02-06T04:32:17.168Z,99604.41
2023-02-06T04:34:44.689Z,99603.00
2023-02-06T04:37:14.972Z,99597.66
2023-02-06T04:39:42.599Z,99604.63
2023-02-06T04:42:10.094Z,99610.59
2023-02-06T04:44:38.453Z,99606.34
2023-02-06T04:47:06.454Z,99609.00
2023-02-06T04:49:34.116Z,99610.38
2023-02-06T04:52:01.712Z,99609.28
2023-02-06T04:54:31.847Z,99606.41
2023-02-06T04:57:00.436Z,99609.66
2023-02-06T04:59:28.087Z,99613.22
2023-02-06T05:01:55.734Z,99611.34
2023-02-06T05:04:23.221Z,99599.75
2023-02-06T05:06:50.752Z,99611.94
2023-02-06T05:09:18.257Z,99607.50
2023-02-06T05:11:45.751Z,99611.00
2023-02-06T05:14:13.232Z,99598.72
2023-02-06T05:16:40.864Z,99602.06
2023-02-06T05:19:08.390Z,99608.31
2023-02-06T05:21:35.899Z,99603.28
2023-02-06T05:24:03.629Z,99607.63
2023-02-06T05:26:31.189Z,99613.88
2023-02-06T05:28:58.757Z,99608.72
2023-02-06T05:31:26.328Z,99610.59
2023-02-06T05:33:54.953Z,99615.31
2023-02-06T05:36:23.019Z,99614.34
2023-02-06T05:38:50.607Z,99609.06
2023-02-06T05:41:18.702Z,99606.34
2023-02-06T05:43:46.422Z,99605.31
2023-02-06T05:46:14.034Z,99612.25
2023-02-06T05:48:41.579Z,99609.34
2023-02-06T05:51:09.109Z,99605.66
2023-02-06T05:53:36.608Z,99616.03
2023-02-06T05:56:05.149Z,99618.69
2023-02-06T05:58:33.690Z,99623.97
2023-02-06T06:01:01.279Z,99627.38
2023-02-06T06:03:28.917Z,99623.88
2023-02-06T06:05:56.498Z,99625.66
2023-02-06T06:08:24.390Z,99628.38
2023-02-06T06:10:52.492Z,99625.22
2023-02-06T06:13:20.137Z,99622.72
2023-02-06T06:15:52.445Z,99615.75
2023-02-06T06:18:21.226Z,99620.19
2023-02-06T06:20:49.254Z,99617.44
2023-02-06T06:23:16.796Z,99616.50
2023-02-06T06:25:47.068Z,99615.56
2023-02-06T06:28:14.747Z,99610.97
2023-02-06T06:30:42.458Z,99614.41
2023-02-06T06:33:10.257Z,99628.63
2023-02-06T06:35:38.376Z,99641.00
2023-02-06T06:38:05.983Z,99645.75
2023-02-06T06:40:33.619Z,99645.66
2023-02-06T06:43:01.604Z,99633.28
2023-02-06T06:45:29.184Z,99633.47
2023-02-06T06:47:56.736Z,99630.75
2023-02-06T06:50:24.279Z,99641.91
2023-02-06T06:52:51.803Z,99629.53
2023-02-06T06:55:19.581Z,99632.09
2023-02-06T06:57:47.375Z,99624.25
2023-02-06T07:00:16.067Z,99618.13
2023-02-06T07:02:43.784Z,99615.47
2023-02-06T07:05:11.759Z,99615.47
2023-02-06T07:07:39.381Z,99621.50
2023-02-06T07:10:09.996Z,99631.03
2023-02-06T07:12:38.164Z,99635.47
2023-02-06T07:15:06.621Z,99631.91
2023-02-06T07:17:34.445Z,99635.22
2023-02-06T07:20:02.173Z,99627.03
2023-02-06T07:22:29.671Z,99628.66
2023-02-06T07:24:57.326Z,99635.75
2023-02-06T07:27:24.864Z,99634.22
2023-02-06T07:29:52.375Z,99641.97
2023-02-06T07:32:19.935Z,99637.63
2023-02-06T07:34:47.446Z,99636.66
2023-02-06T07:37:15.064Z,99637.44
2023-02-06T07:39:42.537Z,99640.09
2023-02-06T07:42:11.900Z,99640.84
2023-02-06T07:45:01.393Z,99639.84
2023-02-06T07:47:28.939Z,99638.13
2023-02-06T07:49:56.449Z,99637.28
2023-02-06T07:52:24.112Z,99640.84
2023-02-06T07:54:51.614Z,99641.66
2023-02-06T07:57:19.966Z,99638.91
2023-02-06T07:59:47.572Z,99629.97
2023-02-06T08:02:15.179Z,99629.69
2023-02-06T08:04:42.860Z,99631.22
2023-02-06T08:07:14.761Z,99634.47
2023-02-06T08:09:42.762Z,99633.44
2023-02-06T08:12:11.894Z,99629.00
2023-02-06T08:14:39.697Z,99640.25
2023-02-06T08:17:07.742Z,99634.97
2023-02-06T08:19:35.270Z,99628.56
2023-02-06T08:22:02.801Z,99633.69
2023-02-06T08:24:30.430Z,99636.25
2023-02-06T08:26:57.965Z,99630.00
2023-02-06T08:29:26.083Z,99623.88
2023-02-06T08:31:53.647Z,99625.41
2023-02-06T08:34:21.226Z,99618.16
2023-02-06T08:36:48.758Z,99625.94
2023-02-06T08:39:18.046Z,99628.47
2023-02-06T08:41:45.669Z,99633.88
2023-02-06T08:44:16.349Z,99632.06
2023-02-06T08:46:46.431Z,99625.81
2023-02-06T08:49:20.902Z,99626.94
2023-02-06T08:51:51.914Z,99636.41
2023-02-06T08:54:23.538Z,99637.28
2023-02-06T08:56:52.676Z,99634.78
2023-02-06T08:59:20.685Z,99633.69
2023-02-06T09:01:49.261Z,99634.19
2023-02-06T09:04:17.661Z,99642.13
2023-02-06T09:06:48.845Z,99636.66
2023-02-06T09:09:16.376Z,99644.50
2023-02-06T09:11:43.995Z,99642.97
2023-02-06T09:14:16.856Z,99635.19
2023-02-06T09:16:44.854Z,99633.59
2023-02-06T09:19:12.893Z,99634.53
2023-02-06T09:21:40.466Z,99631.72
2023-02-06T09:24:09.964Z,99634.97
2023-02-06T09:26:57.093Z,99630.50
2023-02-06T09:29:29.031Z,99627.78
2023-02-06T09:31:57.337Z,99621.28
2023-02-06T09:34:26.183Z,99627.22
2023-02-06T09:36:54.988Z,99628.88
2023-02-06T09:39:22.524Z,99627.81
2023-02-06T09:41:55.132Z,99618.75
2023-02-06T09:44:46.232Z,99605.59
2023-02-06T09:47:35.344Z,99604.59
2023-02-06T09:50:16.765Z,99593.22
2023-02-06T09:53:20.954Z,99593.47
2023-02-06T09:56:02.371Z,99592.19
2023-02-06T09:59:17.671Z,99586.59
2023-02-06T10:02:25.696Z,99589.75
2023-02-06T10:05:04.504Z,99579.47
2023-02-06T10:08:05.977Z,99574.09
2023-02-06T10:10:54.830Z,99574.47
2023-02-06T10:13:52.657Z,99560.16
2023-02-06T10:16:39.652Z,99561.59
2023-02-06T10:19:43.562Z,99570.31
2023-02-06T10:22:56.933Z,99567.47
2023-02-06T10:25:37.523Z,99564.34
2023-02-06T10:28:29.244Z,99556.50
2023-02-06T10:31:25.651Z,99552.91
2023-02-06T10:33:56.408Z,99553.38
2023-02-06T10:36:48.349Z,99553.06
2023-02-06T10:39:44.775Z,99548.81
2023-02-06T10:42:49.408Z,99543.63
2023-02-06T10:46:15.354Z,99549.22
2023-02-06T10:48:59.912Z,99551.09
2023-02-06T10:51:37.831Z,99543.53
2023-02-06T10:54:32.498Z,99540.59
2023-02-06T10:57:00.757Z,99540.03
2023-02-06T10:59:48.097Z,99546.94
2023-02-06T11:03:06.292Z,99548.16
2023-02-06T11:05:35.856Z,99544.75
2023-02-06T11:08:34.479Z,99539.69
2023-02-06T11:11:24.796Z,99532.34
2023-02-06T11:14:32.924Z,99527.25
2023-02-06T11:17:01.171Z,99516.19
2023-02-06T11:19:41.970Z,99517.59
2023-02-06T11:22:26.770Z,99514.47
2023-02-06T11:25:20.554Z,99514.94
2023-02-06T11:27:48.632Z,99511.06
2023-02-06T11:30:39.649Z,99510.13
2023-02-06T11:33:22.795Z,99512.00
2023-02-06T11:35:59.439Z,99506.06
2023-02-06T11:38:31.771Z,99504.81
2023-02-06T11:41:16.140Z,99507.16
2023-02-06T11:43:43.447Z,99515.88
2023-02-06T11:46:26.367Z,99506.13
2023-02-06T11:48:58.417Z,99498.38
2023-02-06T11:51:47.588Z,99506.81
2023-02-06T11:54:35.113Z,99509.28
2023-02-06T11:57:19.008Z,99506.78
2023-02-06T12:00:14.999Z,99506.03
2023-02-06T12:02:51.874Z,99500.38
2023-02-06T12:05:22.312Z,99495.16
2023-02-06T12:08:10.358Z,99500.09
2023-02-06T12:10:55.968Z,99496.84
2023-02-06T12:13:48.700Z,99486.09
2023-02-06T12:16:17.337Z,99487.22
2023-02-06T12:18:52.860Z,99482.03
2023-02-06T12:21:29.937Z,99472.47
2023-02-06T12:24:39.477Z,99471.91
2023-02-06T12:27:24.552Z,99469.34
2023-02-06T12:30:39.112Z,99472.09
2023-02-06T12:33:25.572Z,99457.81
2023-02-06T12:35:58.644Z,99465.84
2023-02-06T12:39:14.923Z,99465.19
2023-02-06T12:42:06.482Z,99461.31
2023-02-06T12:44:41.962Z,99461.03
2023-02-06T12:47:43.408Z,99462.91
2023-02-06T12:50:24.795Z,99454.88
2023-02-06T12:53:26.969Z,99445.69
2023-02-06T12:56:01.688Z,99444.56
2023-02-06T12:58:50.529Z,99452.41
2023-02-06T13:01:46.077Z,99439.00
2023-02-06T13:04:18.184Z,99427.91
2023-02-06T13:06:54.334Z,99435.88
2023-02-06T13:09:30.890Z,99429.97
2023-02-06T13:12:24.274Z,99436.69
2023-02-06T13:15:02.026Z,99424.56
2023-02-06T13:17:42.392Z,99425.00
2023-02-06T13:20:18.977Z,99425.75
2023-02-06T13:22:53.804Z,99423.94
2023-02-06T13:25:30.268Z,99419.72
2023-02-06T13:28:23.155Z,99418.66
2023-02-06T13:30:59.964Z,99419.88
2023-02-06T13:33:58.536Z,99421.47
2023-02-06T13:36:48.993Z,99425.44
2023-02-06T13:39:30.149Z,99419.28
2023-02-06T13:42:02.369Z,99417.56
2023-02-06T13:44:36.676Z,99416.22
2023-02-06T13:47:23.941Z,99429.06
2023-02-06T13:50:55.480Z,99411.66
2023-02-06T13:53:48.604Z,99408.78
2023-02-06T13:56:47.635Z,99412.72
2023-02-06T13:59:22.575Z,99404.88
2023-02-06T14:01:50.447Z,99404.97
2023-02-06T14:04:31.123Z,99419.06
2023-02-06T14:07:24.956Z,99422.88
2023-02-06T14:10:17.001Z,99421.06
2023-02-06T14:12:56.260Z,99422.03
2023-02-06T14:16:13.341Z,99422.78
2023-02-06T14:18:55.712Z,99418.03
2023-02-06T14:21:44.387Z,99419.81
2023-02-06T14:25:05.272Z,99428.72
2023-02-06T14:27:48.225Z,99421.53
2023-02-06T14:30:30.238Z,99422.47
2023-02-06T14:33:51.046Z,99429.88
2023-02-06T14:36:59.870Z,99424.69
2023-02-06T14:39:50.749Z,99426.56
2023-02-06T14:42:35.532Z,99418.72
2023-02-06T14:45:27.569Z,99425.72
2023-02-06T14:47:59.437Z,99427.41
2023-02-06T14:50:30.127Z,99429.50
2023-02-06T14:53:18.195Z,99425.19
2023-02-06T14:55:47.038Z,99425.31
2023-02-06T14:58:28.243Z,99419.25
2023-02-06T15:01:23.544Z,99427.41
2023-02-06T15:04:06.970Z,99428.25
2023-02-06T15:06:38.611Z,99426.56
2023-02-06T15:09:07.206Z,99422.28
2023-02-06T15:11:35.172Z,99420.69
2023-02-06T15:14:27.096Z,99423.44
2023-02-06T15:16:59.784Z,99420.59
2023-02-06T15:19:35.356Z,99421.44
2023-02-06T15:22:12.787Z,99418.69
2023-02-06T15:25:01.970Z,99424.75
2023-02-06T15:27:35.846Z,99421.34
2023-02-06T15:30:20.643Z,99415.13
2023-02-06T15:32:54.326Z,99411.09
2023-02-06T15:35:35.138Z,99412.06
2023-02-06T15:38:11.527Z,99406.09
2023-02-06T15:40:50.209Z,99416.69
2023-02-06T15:43:26.591Z,99418.50
2023-02-06T15:45:58.298Z,99414.44
2023-02-06T15:48:40.259Z,99411.31
2023-02-06T15:51:08.341Z,99422.00
2023-02-06T15:53:40.148Z,99415.13
2023-02-06T15:56:33.395Z,99404.63
2023-02-06T15:59:05.302Z,99412.16
2023-02-06T16:01:38.738Z,99418.53
2023-02-06T16:04:17.920Z,99418.91
2023-02-06T16:06:46.934Z,99425.53
2023-02-06T16:09:21.679Z,99429.41
2023-02-06T16:11:53.006Z,99419.56
2023-02-06T16:14:33.025Z,99412.19
2023-02-06T16:17:32.506Z,99419.78
2023-02-06T16:20:24.320Z,99423.38
2023-02-06T16:22:56.946Z,99417.13
2023-02-06T16:25:32.677Z,99401.34
2023-02-06T16:28:00.690Z,99407.47
2023-02-06T16:30:34.957Z,99408.53
2023-02-06T16:33:33.224Z,99412.22
2023-02-06T16:36:00.900Z,99410.34
2023-02-06T16:38:28.529Z,99406.06
2023-02-06T16:40:56.361Z,99411.34
2023-02-06T16:43:25.779Z,99414.88
2023-02-06T16:45:53.483Z,99423.75
2023-02-06T16:48:21.049Z,99423.84
2023-02-06T16:50:49.092Z,99424.72
2023-02-06T16:53:22.907Z,99426.63
2023-02-06T16:55:51.327Z,99429.25
2023-02-06T16:58:23.065Z,99436.34
2023-02-06T17:00:51.209Z,99433.78
2023-02-06T17:03:18.862Z,99434.66
2023-02-06T17:05:50.062Z,99442.59
2023-02-06T17:08:23.784Z,99430.19
2023-02-06T17:10:52.194Z,99429.25
2023-02-06T17:13:23.369Z,99436.34
2023-02-06T17:15:54.648Z,99424.81
2023-02-06T17:18:23.886Z,99422.16
2023-02-06T17:20:53.421Z,99415.91
2023-02-06T17:23:21.017Z,99417.78
2023-02-06T17:25:49.428Z,99422.16
2023-02-06T17:28:19.717Z,99416.88
2023-02-06T17:30:48.838Z,99422.91
2023-02-06T17:33:17.399Z,99426.41
2023-02-06T17:35:47.248Z,99421.41
2023-02-06T17:38:14.796Z,99429.81
2023-02-06T17:40:42.431Z,99424.91
2023-02-06T17:43:10.099Z,99421.59
2023-02-06T17:45:39.092Z,99423.56
2023-02-06T17:48:08.055Z,99421.31
2023-02-06T17:50:37.430Z,99423.19
2023-02-06T17:53:06.966Z,99418.66
2023-02-06T17:55:35.912Z,99411.66
2023-02-06T17:58:04.189Z,99407.50
2023-02-06T18:00:31.691Z,99411.19
2023-02-06T18:03:00.296Z,99405.81
2023-02-06T18:05:28.346Z,99401.28
2023-02-06T18:07:57.192Z,99396.59
2023-02-06T18:10:25.915Z,99385.94
2023-02-06T18:12:53.489Z,99392.94
2023-02-06T18:15:21.362Z,99383.19
2023-02-06T18:17:48.955Z,99385.00
2023-02-06T18:20:16.946Z,99387.81
2023-02-06T18:22:44.762Z,99386.41
2023-02-06T18:25:15.285Z,99377.78
2023-02-06T18:27:45.673Z,99383.00
2023-02-06T18:30:15.425Z,99380.19
2023-02-06T18:32:43.148Z,99373.47
2023-02-06T18:35:11.356Z,99383.56
2023-02-06T18:37:38.843Z,99383.75
2023-02-06T18:40:06.701Z,99379.22
2023-02-06T18:42:53.526Z,99382.72
2023-02-06T18:45:23.419Z,99383.69
2023-02-06T18:47:51.623Z,99386.31
2023-02-06T18:50:21.775Z,99385.44
2023-02-06T18:52:50.232Z,99391.50
2023-02-06T18:55:17.960Z,99378.25
2023-02-06T18:57:46.294Z,99383.69
2023-02-06T19:00:17.016Z,99395.94
2023-02-06T19:02:44.545Z,99390.66
2023-02-06T19:05:12.063Z,99387.91
2023-02-06T19:07:39.919Z,99381.03
2023-02-06T19:10:12.843Z,99377.50
2023-02-06T19:12:40.348Z,99374.03
2023-02-06T19:15:08.961Z,99366.47
2023-02-06T19:17:36.534Z,99365.78
2023-02-06T19:20:05.340Z,99370.50
2023-02-06T19:22:37.815Z,99371.47
2023-02-06T19:25:10.896Z,99372.31
2023-02-06T19:27:39.646Z,99370.63
2023-02-06T19:30:08.450Z,99379.31
2023-02-06T19:32:36.172Z,99381.00
2023-02-06T19:35:04.836Z,99403.03
2023-02-06T19:37:32.428Z,99389.81
2023-02-06T19:39:59.908Z,99394.06
2023-02-06T19:42:27.549Z,99398.28
2023-02-06T19:44:55.274Z,99393.75
2023-02-06T19:47:23.107Z,99390.19
2023-02-06T19:49:52.810Z,99389.31
2023-02-06T19:52:21.067Z,99388.66
2023-02-06T19:54:48.639Z,99394.59
2023-02-06T19:57:19.179Z,99393.06
2023-02-06T19:59:46.784Z,99390.81
2023-02-06T20:02:15.914Z,99394.47
2023-02-06T20:04:45.086Z,99397.09
2023-02-06T20:07:12.635Z,99390.88
2023-02-06T20:09:41.847Z,99400.41
2023-02-06T20:12:12.466Z,99409.41
2023-02-06T20:14:40.077Z,99395.41
2023-02-06T20:17:08.273Z,99407.59
2023-02-06T20:19:36.002Z,99412.97
2023-02-06T20:22:04.391Z,99415.53
2023-02-06T20:24:32.772Z,99414.78
2023-02-06T20:27:05.666Z,99414.97
2023-02-06T20:29:37.841Z,99418.72
2023-02-06T20:32:06.657Z,99413.63
2023-02-06T20:34:35.475Z,99400.41
2023-02-06T20:37:03.920Z,99397.91
2023-02-06T20:39:31.975Z,99404.25
2023-02-06T20:41:59.558Z,99398.28
2023-02-06T20:44:28.814Z,99396.06
2023-02-06T20:46:56.338Z,99403.41
2023-02-06T20:49:27.391Z,99409.72
2023-02-06T20:51:55.125Z,99409.63
2023-02-06T20:54:23.647Z,99420.97
2023-02-06T20:56:51.383Z,99426.84
2023-02-06T20:59:20.294Z,99417.84
2023-02-06T21:01:48.476Z,99407.94
2023-02-06T21:04:17.698Z,99405.84
2023-02-06T21:06:47.901Z,99402.53
2023-02-06T21:09:16.678Z,99390.34
2023-02-06T21:11:48.570Z,99388.84
2023-02-06T21:14:16.754Z,99387.38
2023-02-06T21:16:44.284Z,99385.09
2023-02-06T21:19:15.731Z,99387.03
2023-02-06T21:21:46.111Z,99386.28
2023-02-06T21:24:16.258Z,99387.13
2023-02-06T21:26:44.154Z,99374.00
2023-02-06T21:29:13.715Z,99372.16
2023-02-06T21:31:42.092Z,99359.09
2023-02-06T21:34:18.132Z,99354.53
2023-02-06T21:36:46.774Z,99361.78
2023-02-06T21:39:21.734Z,99364.78
2023-02-06T21:41:51.882Z,99360.56
2023-02-06T21:44:21.374Z,99366.22
2023-02-06T21:46:49.138Z,99376.00
2023-02-06T21:49:17.030Z,99370.03
2023-02-06T21:51:44.536Z,99380.03
2023-02-06T21:54:12.049Z,99369.47
2023-02-06T21:56:39.693Z,99368.59
2023-02-06T21:59:07.962Z,99371.91
2023-02-06T22:01:35.829Z,99376.19
2023-02-06T22:04:03.923Z,99380.44
2023-02-06T22:06:32.446Z,99374.75
2023-02-06T22:09:05.196Z,99363.13
2023-02-06T22:11:35.363Z,99365.63
2023-02-06T22:14:10.826Z,99366.47
2023-02-06T22:16:39.134Z,99363.91
2023-02-06T22:19:07.822Z,99387.66
2023-02-06T22:21:35.705Z,99383.16
2023-02-06T22:24:07.010Z,99367.06
2023-02-06T22:26:38.487Z,99365.09
2023-02-06T22:29:08.339Z,99368.59
2023-02-06T22:31:36.614Z,99368.50
2023-02-06T22:34:04.265Z,99371.91
2023-02-06T22:36:33.218Z,99376.22
2023-02-06T22:39:06.362Z,99368.31
2023-02-06T22:41:37.907Z,99364.75
2023-02-06T22:44:05.519Z,99382.38
2023-02-06T22:46:36.711Z,99376.06
2023-02-06T22:49:09.441Z,99375.88
2023-02-06T22:51:38.772Z,99379.19
2023-02-06T22:54:09.286Z,99377.44
2023-02-06T22:56:39.147Z,99380.16
2023-02-06T22:59:19.462Z,99388.09
2023-02-06T23:01:55.305Z,99378.72
2023-02-06T23:04:29.660Z,99385.88
2023-02-06T23:06:57.376Z,99390.47
2023-02-06T23:09:29.470Z,99384.34
2023-02-06T23:11:58.777Z,99384.25
2023-02-06T23:14:28.373Z,99387.84
2023-02-06T23:16:56.213Z,99387.25
2023-02-06T23:19:24.344Z,99387.78
2023-02-06T23:21:51.937Z,99368.84
2023-02-06T23:24:20.245Z,99378.94
2023-02-06T23:26:50.730Z,99382.91
2023-02-06T23:29:19.547Z,99386.84
2023-02-06T23:31:48.010Z,99388.72
2023-02-06T23:34:17.639Z,99386.16
2023-02-06T23:36:46.108Z,99388.72
2023-02-06T23:39:13.866Z,99394.66
2023-02-06T23:41:41.670Z,99401.75
2023-02-06T23:44:10.627Z,99412.50
2023-02-06T23:46:39.775Z,99416.31
2023-02-06T23:49:08.111Z,99420.22
2023-02-06T23:51:37.775Z,99420.63
2023-02-06T23:54:07.214Z,99422.66
2023-02-06T23:56:35.573Z,99430.06
2023-02-06T23:59:05.068Z,99426.81
